createdAt,value
2019-01-27T00:05:07.229Z,9.05
2019-01-27T00:10:28.493Z,7.08
2019-01-27T00:15:28.633Z,5.29
2019-01-27T00:20:16.187Z,5.48
2019-01-27T00:25:37.035Z,10.16
2019-01-27T00:30:38.167Z,4.92
2019-01-27T00:35:26.319Z,4.40
2019-01-27T00:40:33.631Z,3.32
2019-01-27T00:45:53.567Z,3.56
2019-01-27T00:50:54.560Z,3.96
2019-01-27T00:55:55.547Z,2.51
2019-01-27T01:00:57.044Z,4.57
2019-01-27T01:05:44.353Z,3.64
2019-01-27T01:10:54.255Z,3.20
2019-01-27T01:15:52.665Z,2.66
2019-01-27T01:21:13.030Z,3.04
2019-01-27T01:26:01.040Z,3.76
2019-01-27T01:31:09.306Z,2.51
2019-01-27T01:36:29.423Z,2.42
2019-01-27T01:41:16.617Z,3.27
2019-01-27T01:46:37.774Z,1.52
2019-01-27T01:51:25.059Z,0.51
2019-01-27T01:56:45.880Z,0.31
2019-01-27T02:01:47.061Z,0.50
2019-01-27T02:06:48.180Z,0.41
2019-01-27T02:11:36.990Z,0.62
2019-01-27T02:16:45.053Z,0.34
2019-01-27T02:22:06.294Z,0.21
2019-01-27T02:27:06.498Z,4.08
2019-01-27T02:32:06.933Z,14.27
2019-01-27T02:36:54.141Z,15.08
2019-01-27T02:42:02.269Z,9.45
2019-01-27T02:52:16.337Z,3.37
2019-01-27T02:57:36.452Z,2.20
2019-01-27T03:02:36.614Z,1.93
2019-01-27T03:07:24.730Z,2.31
2019-01-27T03:12:33.007Z,0.65
2019-01-27T03:17:41.232Z,0.34
2019-01-27T03:23:01.548Z,0.19
2019-01-27T03:27:48.640Z,0.16
2019-01-27T03:32:56.865Z,0.48
2019-01-27T03:38:16.802Z,0.58
2019-01-27T03:43:05.229Z,0.95
2019-01-27T03:48:25.170Z,1.29
2019-01-27T03:53:13.596Z,1.61
2019-01-27T03:58:33.533Z,2.50
2019-01-27T04:03:34.762Z,2.43
2019-01-27T04:08:21.996Z,0.98
2019-01-27T04:13:29.176Z,1.08
2019-01-27T04:19:02.617Z,3.46
2019-01-27T04:23:53.809Z,1.47
2019-01-27T04:28:53.985Z,1.48
2019-01-27T04:33:54.225Z,2.33
2019-01-27T04:38:54.197Z,4.21
2019-01-27T04:43:56.486Z,3.12
2019-01-27T04:48:42.591Z,3.20
2019-01-27T04:53:50.726Z,2.75
2019-01-27T04:58:58.908Z,3.94
2019-01-27T05:04:06.725Z,4.84
2019-01-27T05:09:14.853Z,3.11
2019-01-27T05:14:23.106Z,2.47
2019-01-27T05:19:30.231Z,6.62
2019-01-27T05:24:38.528Z,3.92
2019-01-27T05:29:45.611Z,3.19
2019-01-27T05:34:53.873Z,4.75
2019-01-27T05:40:01.093Z,4.92
2019-01-27T05:45:22.108Z,7.00
2019-01-27T05:50:23.073Z,5.88
2019-01-27T05:55:11.435Z,7.20
2019-01-27T06:00:18.485Z,8.43
2019-01-27T06:05:26.942Z,7.67
2019-01-27T06:10:47.121Z,10.97
2019-01-27T06:15:47.228Z,11.90
2019-01-27T06:20:48.249Z,11.98
2019-01-27T06:25:49.311Z,7.55
2019-01-27T06:30:50.454Z,8.66
2019-01-27T06:35:37.690Z,6.43
2019-01-27T06:41:08.585Z,5.81
2019-01-27T06:46:08.945Z,3.90
2019-01-27T06:50:56.139Z,8.97
2019-01-27T06:56:17.028Z,7.91
2019-01-27T07:01:05.275Z,5.95
2019-01-27T07:06:25.498Z,7.41
2019-01-27T07:11:25.639Z,7.66
2019-01-27T07:16:13.485Z,9.54
2019-01-27T07:21:34.624Z,8.84
2019-01-27T07:26:34.852Z,7.51
2019-01-27T07:31:34.955Z,9.03
2019-01-27T07:36:22.275Z,7.42
2019-01-27T07:41:43.316Z,7.65
2019-01-27T07:46:43.604Z,6.69
2019-01-27T07:51:30.673Z,9.89
2019-01-27T07:56:38.159Z,13.12
2019-01-27T08:01:45.290Z,7.90
2019-01-27T08:07:06.442Z,12.05
2019-01-27T08:12:06.413Z,7.35
2019-01-27T08:16:54.713Z,7.84
2019-01-27T08:22:02.913Z,9.51
2019-01-27T08:27:23.129Z,11.91
2019-01-27T08:32:11.071Z,10.23
2019-01-27T08:37:32.205Z,17.13
2019-01-27T08:42:19.323Z,9.69
2019-01-27T08:47:27.686Z,6.00
2019-01-27T08:52:34.913Z,11.74
2019-01-27T08:57:42.264Z,8.77
2019-01-27T09:03:03.431Z,9.23
2019-01-27T09:08:02.720Z,13.13
2019-01-27T09:18:07.816Z,8.90
2019-01-27T09:22:56.173Z,8.42
2019-01-27T09:28:03.314Z,10.23
2019-01-27T09:33:24.422Z,9.34
2019-01-27T09:38:24.532Z,15.94
2019-01-27T09:43:12.764Z,10.05
2019-01-27T09:48:20.113Z,14.55
2019-01-27T09:53:27.377Z,12.14
2019-01-27T09:58:34.553Z,10.43
2019-01-27T10:03:42.750Z,9.84
2019-01-27T10:09:02.810Z,8.23
2019-01-27T10:13:58.838Z,8.44
2019-01-27T10:19:02.705Z,8.35
2019-01-27T10:24:00.947Z,9.29
2019-01-27T10:29:08.253Z,11.92
2019-01-27T10:34:15.473Z,12.52
2019-01-27T10:39:35.757Z,6.54
2019-01-27T10:44:35.958Z,11.87
2019-01-27T10:49:26.387Z,11.48
2019-01-27T10:54:36.439Z,8.87
2019-01-27T10:59:24.669Z,16.04
2019-01-27T11:04:45.828Z,16.04
2019-01-27T11:09:33.427Z,19.06
2019-01-27T11:14:53.427Z,14.21
2019-01-27T11:19:54.604Z,13.43
2019-01-27T11:29:58.599Z,12.82
2019-01-27T11:34:58.724Z,11.97
2019-01-27T11:39:47.016Z,9.65
2019-01-27T11:44:55.083Z,10.79
2019-01-27T11:50:02.429Z,15.10
2019-01-27T11:55:22.552Z,8.93
2019-01-27T12:00:09.836Z,10.51
2019-01-27T12:05:30.771Z,8.17
2019-01-27T12:10:19.064Z,14.11
2019-01-27T12:15:26.274Z,16.02
2019-01-27T12:20:33.524Z,10.82
2019-01-27T12:25:40.733Z,10.43
2019-01-27T12:30:47.910Z,13.23
2019-01-27T12:36:08.898Z,14.88
2019-01-27T12:40:57.334Z,12.59
2019-01-27T12:46:04.595Z,11.06
2019-01-27T12:51:12.596Z,15.63
2019-01-27T12:56:33.657Z,11.02
2019-01-27T13:01:21.853Z,18.05
2019-01-27T13:06:30.069Z,11.51
2019-01-27T13:16:51.075Z,11.11
2019-01-27T13:21:38.562Z,15.09
2019-01-27T13:31:49.364Z,18.34
2019-01-27T13:36:57.848Z,10.22
2019-01-27T13:42:17.883Z,11.84
2019-01-27T13:47:06.081Z,12.57
2019-01-27T13:52:13.433Z,10.98
2019-01-27T13:57:20.550Z,10.61
2019-01-27T14:02:28.927Z,11.14
2019-01-27T14:12:36.856Z,11.15
2019-01-27T14:17:45.076Z,16.09
2019-01-27T14:23:06.487Z,11.47
2019-01-27T14:27:53.727Z,11.75
2019-01-27T14:33:13.869Z,10.89
2019-01-27T14:38:15.009Z,11.26
2019-01-27T14:43:15.335Z,9.88
2019-01-27T14:48:02.598Z,9.81
2019-01-27T14:53:22.879Z,13.46
2019-01-27T14:58:22.965Z,11.47
2019-01-27T15:03:23.315Z,10.20
2019-01-27T15:08:23.431Z,8.94
2019-01-27T15:18:12.611Z,12.06
2019-01-27T15:23:27.525Z,12.78
2019-01-27T15:28:24.956Z,9.47
2019-01-27T15:38:49.217Z,12.37
2019-01-27T15:43:40.082Z,13.35
2019-01-27T15:48:37.442Z,9.30
2019-01-27T15:53:44.707Z,9.56
2019-01-27T15:58:51.959Z,12.25
2019-01-27T16:04:12.136Z,13.07
2019-01-27T16:08:59.354Z,10.21
2019-01-27T16:19:10.235Z,7.88
2019-01-27T16:24:18.563Z,10.22
2019-01-27T16:29:25.750Z,7.92
2019-01-27T16:34:45.961Z,10.77
2019-01-27T16:39:33.151Z,11.00
2019-01-27T16:44:40.503Z,10.79
2019-01-27T16:50:00.527Z,11.82
2019-01-27T16:54:49.096Z,7.49
2019-01-27T16:59:56.437Z,13.18
2019-01-27T17:05:03.954Z,5.87
2019-01-27T17:10:24.093Z,13.49
2019-01-27T17:15:11.558Z,12.42
2019-01-27T17:20:18.842Z,6.61
2019-01-27T17:25:39.831Z,8.57
2019-01-27T17:30:40.795Z,10.53
2019-01-27T17:35:29.044Z,9.39
2019-01-27T17:40:37.219Z,8.10
2019-01-27T17:45:44.859Z,10.57
2019-01-27T17:50:52.087Z,9.24
2019-01-27T17:55:59.393Z,8.14
2019-01-27T18:01:07.619Z,9.20
2019-01-27T18:06:15.847Z,8.41
2019-01-27T18:11:38.427Z,10.15
2019-01-27T18:16:24.370Z,10.77
2019-01-27T18:21:44.548Z,9.94
2019-01-27T18:27:37.623Z,9.98
2019-01-27T18:32:44.939Z,7.85
2019-01-27T18:38:05.065Z,10.32
2019-01-27T18:42:53.172Z,7.32
2019-01-27T18:48:14.150Z,7.00
2019-01-27T18:53:02.356Z,11.48
2019-01-27T18:58:09.463Z,6.69
2019-01-27T19:03:17.527Z,6.31
2019-01-27T19:08:25.635Z,9.03
2019-01-27T19:13:46.736Z,7.53
2019-01-27T19:23:39.076Z,8.84
2019-01-27T19:28:47.353Z,7.26
2019-01-27T19:34:08.435Z,10.67
2019-01-27T19:39:09.583Z,9.95
2019-01-27T19:43:56.985Z,8.12
2019-01-27T19:49:05.395Z,9.80
2019-01-27T19:54:12.439Z,10.24
2019-01-27T19:59:33.622Z,11.23
2019-01-27T20:04:33.755Z,10.66
2019-01-27T20:09:33.996Z,9.61
2019-01-27T20:14:21.190Z,4.63
2019-01-27T20:19:28.339Z,7.82
2019-01-27T20:24:36.516Z,6.00
2019-01-27T20:29:56.598Z,7.01
2019-01-27T20:34:44.853Z,10.42
2019-01-27T20:39:52.085Z,8.59
2019-01-27T20:45:12.050Z,5.82
2019-01-27T20:50:00.593Z,10.15
2019-01-27T20:55:20.731Z,10.96
2019-01-27T21:00:10.062Z,7.03
2019-01-27T21:05:08.116Z,8.25
2019-01-27T21:10:29.687Z,7.25
2019-01-27T21:15:18.415Z,6.38
2019-01-27T21:20:38.547Z,7.53
2019-01-27T21:25:38.761Z,12.33
2019-01-27T21:30:25.931Z,7.91
2019-01-27T21:35:34.020Z,5.96
2019-01-27T21:46:03.005Z,7.48
2019-01-27T21:50:50.175Z,6.55
2019-01-27T21:56:11.295Z,6.04
2019-01-27T22:00:58.621Z,5.63
2019-01-27T22:06:18.619Z,6.69
2019-01-27T22:11:06.838Z,7.64
2019-01-27T22:16:13.946Z,8.20
2019-01-27T22:21:22.219Z,8.94
2019-01-27T22:26:29.466Z,6.03
2019-01-27T22:31:36.774Z,9.06
2019-01-27T22:36:43.975Z,8.54
2019-01-27T22:41:51.113Z,6.36
2019-01-27T22:46:59.173Z,6.69
2019-01-27T22:52:20.381Z,4.68
2019-01-27T22:57:08.591Z,4.29
2019-01-27T23:07:25.517Z,5.16
2019-01-27T23:12:45.634Z,3.91
2019-01-27T23:17:46.736Z,6.40
2019-01-27T23:22:33.932Z,6.84
2019-01-27T23:27:42.111Z,7.39
2019-01-27T23:32:51.438Z,8.51
2019-01-27T23:37:49.631Z,8.11
2019-01-27T23:42:56.783Z,5.73
2019-01-27T23:48:04.870Z,5.73
2019-01-27T23:53:13.122Z,6.50
2019-01-27T23:58:20.341Z,5.71
